createdAt,value
2023-03-31T00:00:53.062Z,6.57
2023-03-31T00:03:24.065Z,6.63
2023-03-31T00:05:58.396Z,6.67
2023-03-31T00:08:30.559Z,6.67
2023-03-31T00:11:00.228Z,6.61
2023-03-31T00:13:28.197Z,6.56
2023-03-31T00:15:58.445Z,6.51
2023-03-31T00:18:27.741Z,6.44
2023-03-31T00:20:58.516Z,6.38
2023-03-31T00:23:29.142Z,6.36
2023-03-31T00:25:57.121Z,6.35
2023-03-31T00:28:25.208Z,6.38
2023-03-31T00:30:53.606Z,6.34
2023-03-31T00:33:21.624Z,6.31
2023-03-31T00:35:53.805Z,6.30
2023-03-31T00:38:22.090Z,6.31
2023-03-31T00:40:52.614Z,6.29
2023-03-31T00:43:32.439Z,6.31
2023-03-31T00:46:09.065Z,6.26
2023-03-31T00:48:38.413Z,6.20
2023-03-31T00:51:07.834Z,6.04
2023-03-31T00:53:35.906Z,6.01
2023-03-31T00:56:08.052Z,5.96
2023-03-31T00:58:43.639Z,5.85
2023-03-31T01:01:14.454Z,5.81
2023-03-31T01:03:46.944Z,5.77
2023-03-31T01:06:16.932Z,5.68
2023-03-31T01:08:44.888Z,5.64
2023-03-31T01:11:13.985Z,5.58
2023-03-31T01:13:41.946Z,5.55
2023-03-31T01:16:09.918Z,5.56
2023-03-31T01:18:37.896Z,5.56
2023-03-31T01:21:19.832Z,5.58
2023-03-31T01:24:32.054Z,5.58
2023-03-31T01:27:08.290Z,5.61
2023-03-31T01:29:53.137Z,5.61
2023-03-31T01:32:51.763Z,5.68
2023-03-31T01:35:44.976Z,5.77
2023-03-31T01:38:42.789Z,5.85
2023-03-31T01:41:22.777Z,5.94
2023-03-31T01:43:53.648Z,6.05
2023-03-31T01:46:24.674Z,6.14
2023-03-31T01:48:56.936Z,6.28
2023-03-31T01:51:28.240Z,6.43
2023-03-31T01:53:58.027Z,6.56
2023-03-31T01:56:29.255Z,6.65
2023-03-31T01:58:59.283Z,6.78
2023-03-31T02:01:31.117Z,6.85
2023-03-31T02:04:00.414Z,6.97
2023-03-31T02:06:30.739Z,7.06
2023-03-31T02:08:59.563Z,7.12
2023-03-31T02:11:29.607Z,7.28
2023-03-31T02:13:57.527Z,7.41
2023-03-31T02:16:26.637Z,7.52
2023-03-31T02:19:02.193Z,7.62
2023-03-31T02:21:30.535Z,7.75
2023-03-31T02:23:58.500Z,7.87
2023-03-31T02:26:28.973Z,7.99
2023-03-31T02:28:56.915Z,8.05
2023-03-31T02:31:28.778Z,8.16
2023-03-31T02:33:56.903Z,8.23
2023-03-31T02:36:24.882Z,8.26
2023-03-31T02:38:54.302Z,8.29
2023-03-31T02:41:22.238Z,8.35
2023-03-31T02:43:51.566Z,8.38
2023-03-31T02:46:19.610Z,8.34
2023-03-31T02:48:49.219Z,8.29
2023-03-31T02:51:47.070Z,8.14
2023-03-31T02:54:35.157Z,8.04
2023-03-31T02:57:34.420Z,7.96
2023-03-31T03:00:09.611Z,7.91
2023-03-31T03:02:41.468Z,7.98
2023-03-31T03:05:22.920Z,8.02
2023-03-31T03:07:55.970Z,8.00
2023-03-31T03:10:29.533Z,7.95
2023-03-31T03:12:58.770Z,7.95
2023-03-31T03:15:30.805Z,7.94
2023-03-31T03:17:58.797Z,7.95
2023-03-31T03:20:26.922Z,7.94
2023-03-31T03:22:54.849Z,7.96
2023-03-31T03:25:24.440Z,7.93
2023-03-31T03:27:54.009Z,7.90
2023-03-31T03:30:21.974Z,7.94
2023-03-31T03:32:51.377Z,7.96
2023-03-31T03:35:19.306Z,7.96
2023-03-31T03:37:47.211Z,7.89
2023-03-31T03:40:15.461Z,7.96
2023-03-31T03:42:43.397Z,8.03
2023-03-31T03:45:11.758Z,8.03
2023-03-31T03:47:39.755Z,8.05
2023-03-31T03:50:12.557Z,8.11
2023-03-31T03:52:42.051Z,8.14
2023-03-31T03:55:12.230Z,8.22
2023-03-31T03:57:40.264Z,8.17
2023-03-31T04:00:12.479Z,8.08
2023-03-31T04:02:40.969Z,8.14
2023-03-31T04:05:11.056Z,8.15
2023-03-31T04:07:39.020Z,8.06
2023-03-31T04:10:08.194Z,7.96
2023-03-31T04:12:36.185Z,7.91
2023-03-31T04:15:04.351Z,7.91
2023-03-31T04:17:34.919Z,7.93
2023-03-31T04:20:06.035Z,8.07
2023-03-31T04:22:40.701Z,8.26
2023-03-31T04:25:14.750Z,8.32
2023-03-31T04:27:46.731Z,8.38
2023-03-31T04:30:22.803Z,8.47
2023-03-31T04:32:51.967Z,8.49
2023-03-31T04:35:20.713Z,8.62
2023-03-31T04:37:50.416Z,8.71
2023-03-31T04:40:18.745Z,8.68
2023-03-31T04:42:46.667Z,8.78
2023-03-31T04:45:14.614Z,8.89
2023-03-31T04:47:43.522Z,8.99
2023-03-31T04:50:15.380Z,9.09
2023-03-31T04:52:44.806Z,9.14
2023-03-31T04:55:14.092Z,9.28
2023-03-31T04:57:42.166Z,9.37
2023-03-31T05:00:11.545Z,9.50
2023-03-31T05:02:39.571Z,9.56
2023-03-31T05:05:08.182Z,9.56
2023-03-31T05:07:36.163Z,9.45
2023-03-31T05:10:04.230Z,9.52
2023-03-31T05:12:36.648Z,9.58
2023-03-31T05:15:04.745Z,9.70
2023-03-31T05:17:33.272Z,9.75
2023-03-31T05:20:01.247Z,9.91
2023-03-31T05:22:29.184Z,9.98
2023-03-31T05:24:57.154Z,10.03
2023-03-31T05:27:25.092Z,10.05
2023-03-31T05:29:54.429Z,9.92
2023-03-31T05:32:22.371Z,10.06
2023-03-31T05:34:52.613Z,10.14
2023-03-31T05:37:21.132Z,9.93
2023-03-31T05:39:49.128Z,9.83
2023-03-31T05:42:17.093Z,9.85
2023-03-31T05:44:45.048Z,9.57
2023-03-31T05:47:14.382Z,9.41
2023-03-31T05:49:42.279Z,9.41
2023-03-31T05:52:10.313Z,9.44
2023-03-31T05:54:38.273Z,9.36
2023-03-31T05:57:06.247Z,9.39
2023-03-31T05:59:35.669Z,9.31
2023-03-31T06:02:03.725Z,9.16
2023-03-31T06:04:33.553Z,8.99
2023-03-31T06:07:01.646Z,8.92
2023-03-31T06:09:29.692Z,8.92
2023-03-31T06:11:57.639Z,8.93
2023-03-31T06:14:25.759Z,8.76
2023-03-31T06:19:22.007Z,8.40
2023-03-31T06:21:51.477Z,8.30
2023-03-31T06:24:19.412Z,8.28
2023-03-31T06:26:47.347Z,8.30
2023-03-31T06:29:15.472Z,8.27
2023-03-31T06:31:43.438Z,8.34
2023-03-31T06:34:11.365Z,8.16
2023-03-31T06:36:39.299Z,8.20
2023-03-31T06:39:08.870Z,8.18
2023-03-31T06:41:37.442Z,8.11
2023-03-31T06:44:05.421Z,8.07
2023-03-31T06:46:33.396Z,7.87
2023-03-31T06:49:01.383Z,7.95
2023-03-31T06:51:30.657Z,7.97
2023-03-31T06:54:00.461Z,7.92
2023-03-31T06:56:29.765Z,7.91
2023-03-31T06:58:57.737Z,7.98
2023-03-31T07:01:25.719Z,7.93
2023-03-31T07:03:53.776Z,8.00
2023-03-31T07:06:21.674Z,8.14
2023-03-31T07:08:49.655Z,8.33
2023-03-31T07:11:21.051Z,8.52
2023-03-31T07:13:50.610Z,8.62
2023-03-31T07:16:18.586Z,8.84
2023-03-31T07:18:46.540Z,9.01
2023-03-31T07:21:14.670Z,9.13
2023-03-31T07:23:42.776Z,9.27
2023-03-31T07:26:11.458Z,9.37
2023-03-31T07:28:39.414Z,9.43
2023-03-31T07:31:13.605Z,9.51
2023-03-31T07:33:41.637Z,9.53
2023-03-31T07:36:13.443Z,9.67
2023-03-31T07:38:42.382Z,9.80
2023-03-31T07:41:12.158Z,9.88
2023-03-31T07:43:40.261Z,10.00
2023-03-31T07:46:08.734Z,10.22
2023-03-31T07:48:38.256Z,10.40
2023-03-31T07:51:06.762Z,10.60
2023-03-31T07:53:34.859Z,10.67
2023-03-31T07:56:02.885Z,10.85
2023-03-31T07:58:30.868Z,10.87
2023-03-31T08:00:58.880Z,10.98
2023-03-31T08:03:26.972Z,11.03
2023-03-31T08:05:56.324Z,10.91
2023-03-31T08:08:24.246Z,11.01
2023-03-31T08:10:52.200Z,11.25
2023-03-31T08:13:21.276Z,11.51
2023-03-31T08:15:49.233Z,11.77
2023-03-31T08:18:17.167Z,11.72
2023-03-31T08:20:46.623Z,11.89
2023-03-31T08:23:17.101Z,12.06
2023-03-31T08:25:45.082Z,11.86
2023-03-31T08:28:14.107Z,11.83
2023-03-31T08:30:42.087Z,11.96
2023-03-31T08:33:12.341Z,12.12
2023-03-31T08:35:40.418Z,12.43
2023-03-31T08:38:08.422Z,12.64
2023-03-31T08:40:37.754Z,12.74
2023-03-31T08:43:07.359Z,12.79
2023-03-31T08:45:36.247Z,12.99
2023-03-31T08:48:07.362Z,13.20
2023-03-31T08:50:36.865Z,13.14
2023-03-31T08:53:06.300Z,13.06
2023-03-31T08:55:49.772Z,12.98
2023-03-31T08:58:23.285Z,12.94
2023-03-31T09:00:53.530Z,13.12
2023-03-31T09:03:25.739Z,13.27
2023-03-31T09:06:00.820Z,13.43
2023-03-31T09:08:38.353Z,13.72
2023-03-31T09:11:15.649Z,14.06
2023-03-31T09:14:04.341Z,14.78
2023-03-31T09:16:34.449Z,15.51
2023-03-31T09:19:03.002Z,16.06
2023-03-31T09:21:33.088Z,16.34
2023-03-31T09:24:04.464Z,16.78
2023-03-31T09:26:37.485Z,17.54
2023-03-31T09:29:07.274Z,18.19
2023-03-31T09:31:35.566Z,18.70
2023-03-31T09:34:03.572Z,18.92
2023-03-31T09:36:31.563Z,19.26
2023-03-31T09:38:59.497Z,19.91
2023-03-31T09:41:27.550Z,20.27
2023-03-31T09:43:56.859Z,20.36
2023-03-31T09:46:30.312Z,20.76
2023-03-31T09:49:01.359Z,21.05
2023-03-31T09:51:31.413Z,21.09
2023-03-31T09:54:02.506Z,21.61
2023-03-31T09:56:34.702Z,21.94
2023-03-31T09:59:04.398Z,22.39
2023-03-31T10:01:32.614Z,22.33
2023-03-31T10:04:00.639Z,22.36
2023-03-31T10:06:28.619Z,22.30
2023-03-31T10:08:57.710Z,21.89
2023-03-31T10:11:27.241Z,21.67
2023-03-31T10:13:58.949Z,21.21
2023-03-31T10:16:32.114Z,20.94
2023-03-31T10:19:13.092Z,20.37
2023-03-31T10:21:41.161Z,20.02
2023-03-31T10:24:12.118Z,19.86
2023-03-31T10:26:40.906Z,19.50
2023-03-31T10:29:11.997Z,19.37
2023-03-31T10:31:41.437Z,18.87
2023-03-31T10:34:11.674Z,18.74
2023-03-31T10:36:39.721Z,18.29
2023-03-31T10:39:07.783Z,18.10
2023-03-31T10:41:35.827Z,17.96
2023-03-31T10:44:04.741Z,17.75
2023-03-31T10:46:44.331Z,17.56
2023-03-31T10:49:17.320Z,17.74
2023-03-31T10:51:50.255Z,17.84
2023-03-31T10:54:18.599Z,17.91
2023-03-31T10:56:48.951Z,17.76
2023-03-31T10:59:38.556Z,17.79
2023-03-31T11:02:17.820Z,17.82
2023-03-31T11:04:49.072Z,17.88
2023-03-31T11:07:29.592Z,18.05
2023-03-31T11:10:04.678Z,18.25
2023-03-31T11:12:34.073Z,18.49
2023-03-31T11:15:08.621Z,18.58
2023-03-31T11:17:45.447Z,18.77
2023-03-31T11:20:17.777Z,19.00
2023-03-31T11:22:48.431Z,19.32
2023-03-31T11:25:35.280Z,20.03
2023-03-31T11:28:35.196Z,20.68
2023-03-31T11:31:09.894Z,21.15
2023-03-31T11:34:02.089Z,21.22
2023-03-31T11:36:41.620Z,20.74
2023-03-31T11:39:18.514Z,20.51
2023-03-31T11:41:48.200Z,20.38
2023-03-31T11:44:17.188Z,20.17
2023-03-31T11:46:46.300Z,20.10
2023-03-31T11:49:19.288Z,20.14
2023-03-31T11:51:50.430Z,20.36
2023-03-31T11:54:19.707Z,20.45
2023-03-31T11:56:47.725Z,20.42
2023-03-31T11:59:16.595Z,20.78
2023-03-31T12:01:46.354Z,20.72
2023-03-31T12:04:23.680Z,20.59
2023-03-31T12:06:51.683Z,20.67
2023-03-31T12:09:23.310Z,20.12
2023-03-31T12:11:53.662Z,20.42
2023-03-31T12:14:28.673Z,20.78
2023-03-31T12:16:58.121Z,20.77
2023-03-31T12:19:29.238Z,21.06
2023-03-31T12:22:00.131Z,22.39
2023-03-31T12:24:28.115Z,24.43
2023-03-31T12:27:02.322Z,26.04
2023-03-31T12:29:32.144Z,25.13
2023-03-31T12:32:01.046Z,25.73
2023-03-31T12:34:30.784Z,26.00
2023-03-31T12:37:24.074Z,24.85
2023-03-31T12:39:55.909Z,24.42
2023-03-31T12:42:54.173Z,23.82
2023-03-31T12:45:27.032Z,23.73
2023-03-31T12:48:05.647Z,23.20
2023-03-31T12:50:54.815Z,22.45
2023-03-31T12:53:26.312Z,21.60
2023-03-31T12:55:57.813Z,21.57
2023-03-31T12:58:44.428Z,21.71
2023-03-31T13:01:15.451Z,22.14
2023-03-31T13:03:50.709Z,22.24
2023-03-31T13:06:50.199Z,22.26
2023-03-31T13:09:43.694Z,22.46
2023-03-31T13:12:15.952Z,22.25
2023-03-31T13:14:44.695Z,22.19
2023-03-31T13:17:14.242Z,21.92
2023-03-31T13:19:42.588Z,21.72
2023-03-31T13:22:35.058Z,21.56
2023-03-31T13:25:39.942Z,21.68
2023-03-31T13:28:26.843Z,21.74
2023-03-31T13:30:56.835Z,21.96
2023-03-31T13:33:36.640Z,21.86
2023-03-31T13:36:36.779Z,21.92
2023-03-31T13:39:14.839Z,21.77
2023-03-31T13:41:49.624Z,21.41
2023-03-31T13:44:38.858Z,21.47
2023-03-31T13:47:34.453Z,21.26
2023-03-31T13:50:14.174Z,21.55
2023-03-31T13:52:45.956Z,21.45
2023-03-31T13:55:33.910Z,21.40
2023-03-31T13:58:25.554Z,21.36
2023-03-31T14:01:23.861Z,21.48
2023-03-31T14:03:58.122Z,21.56
2023-03-31T14:06:27.591Z,21.58
2023-03-31T14:08:56.727Z,21.48
2023-03-31T14:11:26.768Z,21.70
2023-03-31T14:14:13.378Z,21.94
2023-03-31T14:16:42.054Z,21.78
2023-03-31T14:19:34.774Z,21.38
2023-03-31T14:22:05.509Z,21.34
2023-03-31T14:24:35.105Z,21.29
2023-03-31T14:27:06.941Z,20.99
2023-03-31T14:29:37.566Z,20.70
2023-03-31T14:32:08.503Z,20.67
2023-03-31T14:34:46.218Z,20.49
2023-03-31T14:37:16.188Z,20.38
2023-03-31T14:39:45.462Z,20.19
2023-03-31T14:42:15.358Z,20.21
2023-03-31T14:44:46.922Z,20.27
2023-03-31T14:47:16.393Z,20.22
2023-03-31T14:49:44.371Z,20.26
2023-03-31T14:52:17.208Z,20.26
2023-03-31T14:54:47.586Z,20.23
2023-03-31T14:57:19.421Z,20.02
2023-03-31T14:59:47.777Z,19.95
2023-03-31T15:02:17.330Z,19.67
2023-03-31T15:04:48.197Z,19.58
2023-03-31T15:07:16.628Z,19.41
2023-03-31T15:09:46.274Z,19.44
2023-03-31T15:12:15.791Z,19.28
2023-03-31T15:14:47.649Z,19.16
2023-03-31T15:17:21.405Z,19.12
2023-03-31T15:19:55.023Z,19.04
2023-03-31T15:22:24.064Z,18.91
2023-03-31T15:24:52.468Z,18.77
2023-03-31T15:30:16.744Z,18.44
2023-03-31T15:32:45.021Z,18.44
2023-03-31T15:35:22.326Z,18.31
2023-03-31T15:37:52.137Z,18.33
2023-03-31T15:40:21.154Z,18.26
2023-03-31T15:43:01.693Z,18.16
2023-03-31T15:45:46.335Z,18.05
2023-03-31T15:48:20.799Z,17.90
2023-03-31T15:50:48.986Z,17.94
2023-03-31T15:53:30.127Z,17.78
2023-03-31T15:55:59.954Z,17.80
2023-03-31T15:59:04.399Z,17.83
2023-03-31T16:01:34.516Z,17.64
2023-03-31T16:04:03.072Z,17.59
2023-03-31T16:06:36.087Z,17.65
2023-03-31T16:09:06.117Z,17.61
2023-03-31T16:11:37.610Z,17.51
2023-03-31T16:14:08.956Z,17.38
2023-03-31T16:16:38.445Z,17.29
2023-03-31T16:19:10.037Z,17.11
2023-03-31T16:21:39.403Z,17.00
2023-03-31T16:24:07.685Z,16.93
2023-03-31T16:26:35.725Z,16.82
2023-03-31T16:29:04.022Z,16.72
2023-03-31T16:31:35.303Z,16.59
2023-03-31T16:34:05.443Z,16.46
2023-03-31T16:36:33.576Z,16.32
2023-03-31T16:39:05.079Z,16.17
2023-03-31T16:41:33.203Z,16.03
2023-03-31T16:44:01.242Z,15.95
2023-03-31T16:46:29.251Z,15.85
2023-03-31T16:48:57.229Z,15.72
2023-03-31T16:51:26.607Z,15.49
2023-03-31T16:53:56.159Z,15.38
2023-03-31T16:56:27.260Z,15.34
2023-03-31T16:58:55.259Z,15.21
2023-03-31T17:01:23.289Z,15.14
2023-03-31T17:03:51.388Z,15.04
2023-03-31T17:06:19.529Z,14.88
2023-03-31T17:08:48.833Z,14.79
2023-03-31T17:11:16.969Z,14.69
2023-03-31T17:13:44.975Z,14.58
2023-03-31T17:16:22.089Z,14.46
2023-03-31T17:18:54.668Z,14.33
2023-03-31T17:21:23.784Z,14.21
2023-03-31T17:23:53.361Z,14.11
2023-03-31T17:26:22.577Z,14.03
2023-03-31T17:28:50.637Z,13.94
2023-03-31T17:31:19.680Z,13.88
2023-03-31T17:33:47.775Z,13.79
2023-03-31T17:36:16.017Z,13.70
2023-03-31T17:38:45.095Z,13.62
2023-03-31T17:41:15.403Z,13.56
2023-03-31T17:43:45.620Z,13.45
2023-03-31T17:46:14.027Z,13.44
2023-03-31T17:48:42.108Z,13.47
2023-03-31T17:51:10.991Z,13.39
2023-03-31T17:53:39.745Z,13.29
2023-03-31T17:56:07.885Z,13.20
2023-03-31T17:58:37.237Z,13.14
2023-03-31T18:01:05.893Z,13.13
2023-03-31T18:03:33.896Z,13.09
2023-03-31T18:06:06.613Z,13.13
2023-03-31T18:08:34.679Z,13.10
2023-03-31T18:11:03.022Z,13.03
2023-03-31T18:13:30.989Z,12.95
2023-03-31T18:16:00.377Z,12.84
2023-03-31T18:18:29.084Z,12.75
2023-03-31T18:20:57.203Z,12.70
2023-03-31T18:23:25.293Z,12.66
2023-03-31T18:25:53.306Z,12.61
2023-03-31T18:28:21.712Z,12.59
2023-03-31T18:30:49.712Z,12.56
2023-03-31T18:33:19.143Z,12.49
2023-03-31T18:35:48.380Z,12.41
2023-03-31T18:38:16.640Z,12.30
2023-03-31T18:40:49.126Z,12.21
2023-03-31T18:43:18.309Z,12.16
2023-03-31T18:45:49.474Z,12.14
2023-03-31T18:48:19.274Z,12.06
2023-03-31T18:50:47.394Z,11.88
2023-03-31T18:53:16.070Z,12.04
2023-03-31T18:55:44.038Z,12.01
2023-03-31T18:58:12.304Z,11.98
2023-03-31T19:00:40.759Z,11.93
2023-03-31T19:03:08.983Z,11.90
2023-03-31T19:05:38.770Z,11.89
2023-03-31T19:08:06.790Z,11.76
2023-03-31T19:10:34.760Z,11.81
2023-03-31T19:13:02.749Z,11.83
2023-03-31T19:15:31.066Z,11.75
2023-03-31T19:17:59.256Z,11.77
2023-03-31T19:20:27.363Z,11.72
2023-03-31T19:22:57.046Z,11.64
2023-03-31T19:25:25.232Z,11.64
2023-03-31T19:27:53.151Z,11.58
2023-03-31T19:30:22.286Z,11.53
2023-03-31T19:32:50.464Z,11.46
2023-03-31T19:35:18.845Z,11.40
2023-03-31T19:37:46.889Z,11.35
2023-03-31T19:40:16.217Z,11.35
2023-03-31T19:42:44.542Z,11.31
2023-03-31T19:45:12.660Z,11.29
2023-03-31T19:47:40.708Z,11.31
2023-03-31T19:50:09.604Z,11.32
2023-03-31T19:52:37.617Z,11.41
2023-03-31T19:55:06.282Z,11.46
2023-03-31T19:57:35.690Z,11.47
2023-03-31T20:00:05.319Z,11.44
2023-03-31T20:02:33.672Z,11.45
2023-03-31T20:05:01.828Z,11.41
2023-03-31T20:07:30.152Z,11.32
2023-03-31T20:09:58.181Z,11.38
2023-03-31T20:12:26.180Z,11.45
2023-03-31T20:14:55.547Z,11.47
2023-03-31T20:17:23.527Z,11.54
2023-03-31T20:19:51.481Z,11.59
2023-03-31T20:22:19.489Z,11.60
2023-03-31T20:24:47.572Z,11.60
2023-03-31T20:27:15.947Z,11.62
2023-03-31T20:29:44.042Z,11.69
2023-03-31T20:32:15.560Z,11.65
2023-03-31T20:34:43.532Z,11.72
2023-03-31T20:37:12.298Z,11.70
2023-03-31T20:39:40.204Z,11.68
2023-03-31T20:42:08.153Z,11.68
2023-03-31T20:44:36.435Z,11.67
2023-03-31T20:47:04.386Z,11.65
2023-03-31T20:49:33.746Z,11.63
2023-03-31T20:52:01.656Z,11.60
2023-03-31T20:54:29.626Z,11.59
2023-03-31T20:56:57.605Z,11.55
2023-03-31T20:59:25.626Z,11.52
2023-03-31T21:01:53.558Z,11.56
2023-03-31T21:04:21.943Z,11.64
2023-03-31T21:06:51.664Z,11.73
2023-03-31T21:09:19.660Z,11.82
2023-03-31T21:11:47.630Z,11.92
2023-03-31T21:14:15.970Z,12.19
2023-03-31T21:16:43.964Z,12.32
2023-03-31T21:19:12.057Z,12.44
2023-03-31T21:21:41.449Z,12.49
2023-03-31T21:24:12.648Z,12.70
2023-03-31T21:26:40.849Z,12.83
2023-03-31T21:29:08.854Z,12.93
2023-03-31T21:31:36.839Z,13.03
2023-03-31T21:34:04.875Z,13.05
2023-03-31T21:36:32.868Z,13.03
2023-03-31T21:39:00.984Z,13.03
2023-03-31T21:41:31.252Z,13.06
2023-03-31T21:44:02.288Z,13.14
2023-03-31T21:46:31.878Z,13.18
2023-03-31T21:48:59.932Z,13.19
2023-03-31T21:51:28.696Z,13.22
2023-03-31T21:53:57.023Z,13.21
2023-03-31T21:56:25.431Z,13.12
2023-03-31T21:58:54.719Z,13.03
2023-03-31T22:01:23.572Z,12.89
2023-03-31T22:03:52.013Z,12.69
2023-03-31T22:06:20.070Z,12.55
2023-03-31T22:08:48.001Z,12.42
2023-03-31T22:11:16.161Z,12.32
2023-03-31T22:13:44.169Z,12.22
2023-03-31T22:16:18.013Z,12.08
2023-03-31T22:18:47.092Z,12.00
2023-03-31T22:21:17.159Z,11.96
2023-03-31T22:23:45.155Z,11.74
2023-03-31T22:26:13.133Z,11.70
2023-03-31T22:28:41.267Z,11.56
2023-03-31T22:31:09.406Z,11.54
2023-03-31T22:33:38.938Z,11.45
2023-03-31T22:36:07.860Z,11.35
2023-03-31T22:38:35.849Z,11.25
2023-03-31T22:41:03.850Z,11.10
2023-03-31T22:43:31.804Z,10.98
2023-03-31T22:46:03.746Z,10.83
2023-03-31T22:48:31.683Z,10.76
2023-03-31T22:51:02.892Z,10.72
2023-03-31T22:53:30.852Z,10.74
2023-03-31T22:55:59.275Z,10.71
2023-03-31T22:58:27.260Z,10.70
2023-03-31T23:00:58.394Z,10.70
2023-03-31T23:03:27.104Z,10.78
2023-03-31T23:05:55.069Z,10.58
2023-03-31T23:08:24.426Z,10.80
2023-03-31T23:10:56.637Z,10.82
2023-03-31T23:13:24.614Z,10.79
2023-03-31T23:15:52.548Z,10.78
2023-03-31T23:18:20.583Z,10.75
2023-03-31T23:20:48.562Z,10.80
2023-03-31T23:23:17.194Z,10.79
2023-03-31T23:25:46.627Z,10.65
2023-03-31T23:28:14.595Z,10.62
2023-03-31T23:30:42.579Z,10.55
2023-03-31T23:33:10.540Z,10.52
2023-03-31T23:35:38.480Z,10.44
2023-03-31T23:38:06.434Z,10.36
2023-03-31T23:40:34.384Z,10.30
2023-03-31T23:43:03.732Z,10.22
2023-03-31T23:45:31.916Z,10.17
2023-03-31T23:48:00.040Z,10.14
2023-03-31T23:50:28.629Z,10.16
2023-03-31T23:52:59.354Z,10.14
2023-03-31T23:55:27.452Z,10.05
2023-03-31T23:57:55.422Z,10.01
